MSC Carolina — 3ECV5 — position and weather

sailwx.info

Track history (hours):
 
Tides and Currents Weather Stations Pressure Air Temp Water Temp Dewpoint Dewpoint Depression Visibility Wind Speed Wind Dir Waves Ship Positions

MSC Carolina

Last reported at 2015-May-16 01:32 UTC. Time now 2015-May-24 21:22 UTC.
Position N 30°17' E 032°27'.
Warning: this ship's position is 8 days out of date.

Length 275 m; draft 13.5 m.

Type: Ship (hazmat cat B). MMSI: 371475000.

Date/timePositionNaut miles runAvg speedWind from/ knotsBaromVisibWave heightAir tempDewpointWater temp
2015-May-16 01:32N 30°17' E 032°27'48 9.4
2015-May-15 20:30N 31°04' E 032°19'8 8.8
2015-May-15 19:33N 31°12' E 032°20'6 5.7
2015-May-15 18:33N 31°18' E 032°22'7 7.1
2015-May-15 17:33N 31°25' E 032°24'3 2.5
2015-May-15 16:31N 31°27' E 032°23'5 5.5
2015-May-15 15:33N 31°29' E 032°17'5 5.2
2015-May-15 14:33N 31°32' E 032°12'1010.0
2015-May-15 13:31N 31°39' E 032°04'  
2015-May-12 23:05N 36°02' E 015°52'814.2
2015-May-12 22:33N 36°05' E 015°43'4414.1
2015-May-12 19:25N 36°20' E 014°51'1314.7
2015-May-12 18:33N 36°25' E 014°37'1414.4
2015-May-12 17:34N 36°32' E 014°21'1414.5
2015-May-12 16:34N 36°39' E 014°05'1515.0
2015-May-12 15:33N 36°46' E 013°49'1515.4
2015-May-12 14:34N 36°54' E 013°32'1515.2
2015-May-12 13:33N 37°01' E 013°15'1616.2
2015-May-12 12:33N 37°09' E 012°58'2317.0
2015-May-12 11:13N 37°18' E 012°31'1015.6
2015-May-12 10:33N 37°22' E 012°20'1615.7
2015-May-12 09:33N 37°30' E 012°03'1715.5
2015-May-12 08:28N 37°39' E 011°45'1415.9
2015-May-12 07:34N 37°47' E 011°29'2015.9
2015-May-12 06:20N 37°57' E 011°08'1215.9
2015-May-12 05:33N 37°58' E 010°52'1616.1
2015-May-12 04:33N 37°57' E 010°32'1615.8
2015-May-12 03:33N 37°55' E 010°12'1515.2
2015-May-12 02:33N 37°55' E 009°53'1615.5
2015-May-12 01:33N 37°55' E 009°33'1615.7
2015-May-12 00:33N 37°54' E 009°13'1515.1
2015-May-11 23:33N 37°53' E 008°54'1514.4
2015-May-11 22:32N 37°52' E 008°36'8516.5
2015-May-11 17:23N 37°45' E 006°49'4118.8
2015-May-11 15:14N 37°40' E 005°58'5218.9
2015-May-11 12:27N 37°31' E 004°52'1719.2
2015-May-11 11:34N 37°27' E 004°31'2819.8
2015-May-11 10:08N 37°22' E 003°56'1219.7
2015-May-11 09:33N 37°21' E 003°42'2019.8
2015-May-11 08:33N 37°19' E 003°17'9 8.7
2015-May-11 07:32N 37°19' E 003°06'1313.3
2015-May-11 06:33N 37°17' E 002°50'1919.1
2015-May-11 05:33N 37°14' E 002°26'1919.4
2015-May-11 04:33N 37°09' E 002°02'2119.8
2015-May-11 03:30N 37°05' E 001°37'1819.7
2015-May-11 02:33N 37°00' E 001°14'1919.5
2015-May-11 01:33N 36°56' E 000°51'2019.6
2015-May-11 00:33N 36°52' E 000°27'2019.5
2015-May-10 23:33N 36°47' E 000°03'1919.7
2015-May-10 22:33N 36°42' W 000°21'1919.1
2015-May-10 21:33N 36°36' W 000°43'1918.9
2015-May-10 20:33N 36°33' W 001°07'1818.4
2015-May-10 19:33N 36°30' W 001°29'1818.3
2015-May-10 18:33N 36°26' W 001°51'1818.1
2015-May-10 17:33N 36°22' W 002°13'1817.9
2015-May-10 16:33N 36°18' W 002°35'1817.7
2015-May-10 15:33N 36°14' W 002°56'1918.3
2015-May-10 14:31N 36°11' W 003°20'9719.5
2015-May-10 09:33N 35°58' W 005°18'14518.0
2015-May-10 01:31N 36°19' W 008°16'1818.9
2015-May-10 00:33N 36°22' W 008°38'1918.7
2015-May-09 23:33N 36°28' W 009°00'1918.5
2015-May-09 22:33N 36°36' W 009°21'1818.6
2015-May-09 21:33N 36°51' W 009°34'1818.4
2015-May-09 20:33N 37°09' W 009°33'1918.9
2015-May-09 19:33N 37°24' W 009°19'1918.8
2015-May-09 18:33N 37°39' W 009°04'1818.2
2015-May-09 17:33N 37°54' W 008°50'2 1.6
2015-May-09 16:31N 37°56' W 008°51'0 0.0
2015-May-09 15:31N 37°56' W 008°51'0 0.0
2015-May-09 14:31N 37°56' W 008°51'0 0.0
2015-May-09 13:25N 37°56' W 008°51'0 0.0
2015-May-09 12:31N 37°56' W 008°51'0 0.0
2015-May-09 11:31N 37°56' W 008°51'0 0.0
2015-May-09 10:34N 37°56' W 008°51'0 0.0
2015-May-09 09:34N 37°56' W 008°51'0 0.0
2015-May-09 08:33N 37°56' W 008°51'0 0.0
2015-May-09 07:33N 37°56' W 008°51'0 0.0
2015-May-09 06:33N 37°56' W 008°51'0 0.0
2015-May-09 05:33N 37°56' W 008°51'0 0.0
2015-May-09 04:30N 37°56' W 008°51'0 0.0
2015-May-09 03:30N 37°56' W 008°51'0 0.0
2015-May-09 02:30N 37°56' W 008°51'0 0.0
2015-May-09 01:33N 37°56' W 008°51'0 0.0
2015-May-09 00:33N 37°56' W 008°51'0 0.0
2015-May-08 23:33N 37°56' W 008°51'0 0.0
2015-May-08 22:33N 37°56' W 008°51'0 0.0
2015-May-08 21:30N 37°56' W 008°51'0 0.0
2015-May-08 20:33N 37°56' W 008°51'0 0.0
2015-May-08 19:33N 37°56' W 008°51'0 0.0
2015-May-08 18:33N 37°56' W 008°51'0 0.0
2015-May-08 17:33N 37°56' W 008°51'0 0.0
2015-May-08 16:33N 37°56' W 008°51'0 0.0
2015-May-08 15:33N 37°56' W 008°51'0 0.0
2015-May-08 14:33N 37°56' W 008°51'0 0.0
2015-May-08 13:33N 37°56' W 008°51'0 0.0
2015-May-08 12:30N 37°56' W 008°51'0 0.0
2015-May-08 11:30N 37°56' W 008°51'0 0.0
2015-May-08 10:33N 37°56' W 008°51'0 0.0
2015-May-08 09:33N 37°56' W 008°51'0 0.0
2015-May-08 08:30N 37°56' W 008°51'0 0.0
2015-May-08 07:33N 37°56' W 008°51'2 2.4
2015-May-08 06:33N 37°54' W 008°50'2 2.3
2015-May-08 05:33N 37°52' W 008°52'1 1.0
2015-May-08 04:33N 37°51' W 008°53'3 2.9
2015-May-08 03:33N 37°53' W 008°56'6 5.9
2015-May-08 02:33N 37°52' W 009°03'4 3.8
2015-May-08 01:33N 37°51' W 009°08'8 7.8
2015-May-08 00:33N 37°48' W 009°17'9 9.1
2015-May-07 23:33N 37°45' W 009°28'1010.1
2015-May-07 22:33N 37°43' W 009°41'1110.9
2015-May-07 21:33N 37°40' W 009°54'1110.6
2015-May-07 20:33N 37°36' W 010°07'1110.6
2015-May-07 19:33N 37°33' W 010°19'1110.8
2015-May-07 18:33N 37°30' W 010°32'2410.6
2015-May-07 16:20N 37°23' W 011°01'1410.7
2015-May-07 15:04N 37°19' W 011°17'610.7
2015-May-07 14:32N 37°17' W 011°24'  
Track history (hours):
 
Tides and Currents Weather Stations Pressure Air Temp Water Temp Dewpoint Dewpoint Depression Visibility Wind Speed Wind Dir Waves Ship Positions

MSC Carolina

Last reported at 2015-May-16 01:32 UTC. Time now 2015-May-24 21:22 UTC.
Position N 30°17' E 032°27'.
Warning: this ship's position is 8 days out of date.

Length 275 m; draft 13.5 m.

Type: Ship (hazmat cat B). MMSI: 371475000.

Date/timePositionNaut miles runAvg speedWind from/ knotsBaromVisibWave heightAir tempDewpointWater temp
2015-May-16 01:32N 30°17' E 032°27'48 9.4
2015-May-15 20:30N 31°04' E 032°19'8 8.8
2015-May-15 19:33N 31°12' E 032°20'6 5.7
2015-May-15 18:33N 31°18' E 032°22'7 7.1
2015-May-15 17:33N 31°25' E 032°24'3 2.5
2015-May-15 16:31N 31°27' E 032°23'5 5.5
2015-May-15 15:33N 31°29' E 032°17'5 5.2
2015-May-15 14:33N 31°32' E 032°12'1010.0
2015-May-15 13:31N 31°39' E 032°04'  
2015-May-12 23:05N 36°02' E 015°52'814.2
2015-May-12 22:33N 36°05' E 015°43'4414.1
2015-May-12 19:25N 36°20' E 014°51'1314.7
2015-May-12 18:33N 36°25' E 014°37'1414.4
2015-May-12 17:34N 36°32' E 014°21'1414.5
2015-May-12 16:34N 36°39' E 014°05'1515.0
2015-May-12 15:33N 36°46' E 013°49'1515.4
2015-May-12 14:34N 36°54' E 013°32'1515.2
2015-May-12 13:33N 37°01' E 013°15'1616.2
2015-May-12 12:33N 37°09' E 012°58'2317.0
2015-May-12 11:13N 37°18' E 012°31'1015.6
2015-May-12 10:33N 37°22' E 012°20'1615.7
2015-May-12 09:33N 37°30' E 012°03'1715.5
2015-May-12 08:28N 37°39' E 011°45'1415.9
2015-May-12 07:34N 37°47' E 011°29'2015.9
2015-May-12 06:20N 37°57' E 011°08'1215.9
2015-May-12 05:33N 37°58' E 010°52'1616.1
2015-May-12 04:33N 37°57' E 010°32'1615.8
2015-May-12 03:33N 37°55' E 010°12'1515.2
2015-May-12 02:33N 37°55' E 009°53'1615.5
2015-May-12 01:33N 37°55' E 009°33'1615.7
2015-May-12 00:33N 37°54' E 009°13'1515.1
2015-May-11 23:33N 37°53' E 008°54'1514.4
2015-May-11 22:32N 37°52' E 008°36'8516.5
2015-May-11 17:23N 37°45' E 006°49'4118.8
2015-May-11 15:14N 37°40' E 005°58'5218.9
2015-May-11 12:27N 37°31' E 004°52'1719.2
2015-May-11 11:34N 37°27' E 004°31'2819.8
2015-May-11 10:08N 37°22' E 003°56'1219.7
2015-May-11 09:33N 37°21' E 003°42'2019.8
2015-May-11 08:33N 37°19' E 003°17'9 8.7
2015-May-11 07:32N 37°19' E 003°06'1313.3
2015-May-11 06:33N 37°17' E 002°50'1919.1
2015-May-11 05:33N 37°14' E 002°26'1919.4
2015-May-11 04:33N 37°09' E 002°02'2119.8
2015-May-11 03:30N 37°05' E 001°37'1819.7
2015-May-11 02:33N 37°00' E 001°14'1919.5
2015-May-11 01:33N 36°56' E 000°51'2019.6
2015-May-11 00:33N 36°52' E 000°27'2019.5
2015-May-10 23:33N 36°47' E 000°03'1919.7
2015-May-10 22:33N 36°42' W 000°21'1919.1
2015-May-10 21:33N 36°36' W 000°43'1918.9
2015-May-10 20:33N 36°33' W 001°07'1818.4
2015-May-10 19:33N 36°30' W 001°29'1818.3
2015-May-10 18:33N 36°26' W 001°51'1818.1
2015-May-10 17:33N 36°22' W 002°13'1817.9
2015-May-10 16:33N 36°18' W 002°35'1817.7
2015-May-10 15:33N 36°14' W 002°56'1918.3
2015-May-10 14:31N 36°11' W 003°20'9719.5
2015-May-10 09:33N 35°58' W 005°18'14518.0
2015-May-10 01:31N 36°19' W 008°16'1818.9
2015-May-10 00:33N 36°22' W 008°38'1918.7
2015-May-09 23:33N 36°28' W 009°00'1918.5
2015-May-09 22:33N 36°36' W 009°21'1818.6
2015-May-09 21:33N 36°51' W 009°34'1818.4
2015-May-09 20:33N 37°09' W 009°33'1918.9
2015-May-09 19:33N 37°24' W 009°19'1918.8
2015-May-09 18:33N 37°39' W 009°04'1818.2
2015-May-09 17:33N 37°54' W 008°50'2 1.6
2015-May-09 16:31N 37°56' W 008°51'0 0.0
2015-May-09 15:31N 37°56' W 008°51'0 0.0
2015-May-09 14:31N 37°56' W 008°51'0 0.0
2015-May-09 13:25N 37°56' W 008°51'0 0.0
2015-May-09 12:31N 37°56' W 008°51'0 0.0
2015-May-09 11:31N 37°56' W 008°51'0 0.0
2015-May-09 10:34N 37°56' W 008°51'0 0.0
2015-May-09 09:34N 37°56' W 008°51'0 0.0
2015-May-09 08:33N 37°56' W 008°51'0 0.0
2015-May-09 07:33N 37°56' W 008°51'0 0.0
2015-May-09 06:33N 37°56' W 008°51'0 0.0
2015-May-09 05:33N 37°56' W 008°51'0 0.0
2015-May-09 04:30N 37°56' W 008°51'0 0.0
2015-May-09 03:30N 37°56' W 008°51'0 0.0
2015-May-09 02:30N 37°56' W 008°51'0 0.0
2015-May-09 01:33N 37°56' W 008°51'0 0.0
2015-May-09 00:33N 37°56' W 008°51'0 0.0
2015-May-08 23:33N 37°56' W 008°51'0 0.0
2015-May-08 22:33N 37°56' W 008°51'0 0.0
2015-May-08 21:30N 37°56' W 008°51'0 0.0
2015-May-08 20:33N 37°56' W 008°51'0 0.0
2015-May-08 19:33N 37°56' W 008°51'0 0.0
2015-May-08 18:33N 37°56' W 008°51'0 0.0
2015-May-08 17:33N 37°56' W 008°51'0 0.0
2015-May-08 16:33N 37°56' W 008°51'0 0.0
2015-May-08 15:33N 37°56' W 008°51'0 0.0
2015-May-08 14:33N 37°56' W 008°51'0 0.0
2015-May-08 13:33N 37°56' W 008°51'0 0.0
2015-May-08 12:30N 37°56' W 008°51'0 0.0
2015-May-08 11:30N 37°56' W 008°51'0 0.0
2015-May-08 10:33N 37°56' W 008°51'0 0.0
2015-May-08 09:33N 37°56' W 008°51'0 0.0
2015-May-08 08:30N 37°56' W 008°51'0 0.0
2015-May-08 07:33N 37°56' W 008°51'2 2.4
2015-May-08 06:33N 37°54' W 008°50'2 2.3
2015-May-08 05:33N 37°52' W 008°52'1 1.0
2015-May-08 04:33N 37°51' W 008°53'3 2.9
2015-May-08 03:33N 37°53' W 008°56'6 5.9
2015-May-08 02:33N 37°52' W 009°03'4 3.8
2015-May-08 01:33N 37°51' W 009°08'8 7.8
2015-May-08 00:33N 37°48' W 009°17'9 9.1
2015-May-07 23:33N 37°45' W 009°28'1010.1
2015-May-07 22:33N 37°43' W 009°41'1110.9
2015-May-07 21:33N 37°40' W 009°54'1110.6
2015-May-07 20:33N 37°36' W 010°07'1110.6
2015-May-07 19:33N 37°33' W 010°19'1110.8
2015-May-07 18:33N 37°30' W 010°32'2410.6
2015-May-07 16:20N 37°23' W 011°01'1410.7
2015-May-07 15:04N 37°19' W 011°17'610.7
2015-May-07 14:32N 37°17' W 011°24'  

Dump ship's entire track history